Terminal Aerodrome Forecast
Issued by NWS

Home | Current Version | Previous Version | Text Only | Print | Product List | Glossary On
Versions: 1 2 3 4 5 6 7 8 9 10 11 12 13 14 15 16 17 18 19 20 21 22
000
FTUS41 KRLX 081750
TAFCKB
TAF
KCKB 081750Z 0818/0918 23006G12KT P6SM -SHRA OVC035
     FM082300 23007KT P6SM -SHRA OVC020
     FM090500 25008KT 4SM -SHRASN BR OVC008
     FM090700 26009KT 1SM -SHSN BR OVC005
     FM091600 28010KT 3SM -SHSN BR OVC010=

USA.gov is the U.S. government's official web portal to all federal, state and local government web resources and services.